Time;durP1;ratioP1;P1;durP2;ratioP2;P2;SDS_P1;SDS_P2;PMS_P1;PMS_P2;Temp;Humidity;BMP_temperature;BMP_pressure;BME280_temperature;BME280_humidity;BME280_pressure;Samples;Min_cycle;Max_cycle;Signal;HPM_P1;HPM_P2
2023/11/01 15:24:27;;;;;;;5.03;1.40;;;18.10;81.80;;;;;;6045196;23;1585586;-85
2023/11/01 15:26:52;;;;;;;5.53;1.50;;;18.10;81.50;;;;;;6096462;23;20511;-85
2023/11/01 15:29:18;;;;;;;6.20;1.60;;;18.00;81.30;;;;;;6096985;23;20006;-86
2023/11/01 15:31:44;;;;;;;5.50;1.60;;;18.00;81.50;;;;;;6095688;23;20054;-85
2023/11/01 15:34:09;;;;;;;5.93;1.83;;;18.10;81.70;;;;;;6097333;23;20025;-88
2023/11/01 15:36:36;;;;;;;4.72;1.60;;;18.10;81.80;;;;;;6102852;23;20077;-91
2023/11/01 15:39:03;;;;;;;4.72;1.85;;;18.00;81.60;;;;;;6100160;23;20412;-92
2023/11/01 15:41:28;;;;;;;6.88;2.30;;;18.10;82.00;;;;;;6098992;23;20054;-91
2023/11/01 15:43:54;;;;;;;5.85;2.03;;;18.10;82.40;;;;;;6101318;23;20002;-88
2023/11/01 15:46:21;;;;;;;4.85;2.00;;;18.10;82.40;;;;;;6102776;23;20006;-90
2023/11/01 15:48:46;;;;;;;6.38;1.92;;;18.00;82.50;;;;;;6109003;23;20088;-90
2023/11/01 15:51:12;;;;;;;6.32;2.60;;;18.00;82.70;;;;;;6105410;23;20127;-90
2023/11/01 15:53:41;;;;;;;7.07;2.35;;;17.90;83.00;;;;;;6103102;23;20010;-91
2023/11/01 15:56:08;;;;;;;5.80;2.60;;;17.80;83.40;;;;;;6104668;23;20013;-91
2023/11/01 15:58:38;;;;;;;7.82;2.17;;;17.80;83.70;;;;;;6099143;23;20026;-90
2023/11/01 16:01:04;;;;;;;5.40;2.15;;;17.80;84.00;;;;;;6098542;23;19998;-88
2023/11/01 16:03:30;;;;;;;5.45;2.38;;;17.80;83.90;;;;;;6101985;23;20090;-84
2023/11/01 16:05:56;;;;;;;4.75;1.98;;;17.80;84.20;;;;;;6099799;23;20026;-87
2023/11/01 16:08:22;;;;;;;24.95;3.65;;;17.80;84.30;;;;;;6097216;23;20444;-87
2023/11/01 16:10:48;;;;;;;7.40;2.15;;;17.80;84.50;;;;;;6072393;23;20009;-87
2023/11/01 16:13:14;;;;;;;6.00;2.13;;;17.90;84.60;;;;;;6099010;23;20015;-89
2023/11/01 16:15:39;;;;;;;7.55;2.25;;;17.90;84.50;;;;;;6098938;23;20332;-88
2023/11/01 16:18:05;;;;;;;7.68;2.60;;;17.90;84.80;;;;;;6114079;23;20003;-91
2023/11/01 16:20:31;;;;;;;7.10;2.22;;;17.90;85.00;;;;;;6105470;23;19998;-88
2023/11/01 16:22:56;;;;;;;6.95;2.10;;;17.80;85.20;;;;;;6098869;23;20045;-88
2023/11/01 16:25:23;;;;;;;5.93;2.30;;;17.80;85.30;;;;;;6099144;23;20010;-82
2023/11/01 16:27:49;;;;;;;7.63;2.15;;;17.80;85.40;;;;;;6098919;23;20036;-85
2023/11/01 16:30:16;;;;;;;5.32;2.10;;;17.80;85.40;;;;;;6074752;23;20009;-83
2023/11/01 16:32:43;;;;;;;7.25;2.22;;;17.80;85.50;;;;;;6103631;23;20006;-93
2023/11/01 16:35:09;;;;;;;4.45;2.08;;;17.70;85.40;;;;;;6103083;23;20074;-88
2023/11/01 16:37:35;;;;;;;6.10;2.30;;;17.70;85.70;;;;;;6098166;23;20039;-83
2023/11/01 16:40:05;;;;;;;5.93;2.17;;;17.70;85.70;;;;;;6097539;23;20007;-90
2023/11/01 16:42:31;;;;;;;6.35;2.65;;;17.70;85.70;;;;;;6072502;23;20026;-81
2023/11/01 16:44:59;;;;;;;4.45;2.00;;;17.80;85.70;;;;;;6072796;23;20138;-80
2023/11/01 16:47:25;;;;;;;8.30;3.35;;;17.80;85.60;;;;;;6098343;23;20054;-83
2023/11/01 16:49:52;;;;;;;16.52;9.38;;;17.80;85.70;;;;;;6099071;23;20006;-79
2023/11/01 16:52:18;;;;;;;8.32;3.83;;;17.80;85.70;;;;;;6098294;23;20021;-84
2023/11/01 16:54:45;;;;;;;8.50;2.33;;;17.90;85.70;;;;;;6098138;23;20042;-80
2023/11/01 16:57:11;;;;;;;7.30;2.70;;;17.90;85.70;;;;;;6098892;23;20002;-86
2023/11/01 16:59:36;;;;;;;7.05;2.70;;;17.90;86.00;;;;;;6099112;23;20002;-78
2023/11/01 17:02:07;;;;;;;6.60;2.60;;;17.90;86.00;;;;;;6072978;23;20007;-87
2023/11/01 17:04:34;;;;;;;6.75;2.65;;;17.90;86.20;;;;;;6098862;23;20006;-81
2023/11/01 17:07:00;;;;;;;8.55;2.45;;;17.90;85.80;;;;;;6098851;23;20070;-87
2023/11/01 17:09:27;;;;;;;9.20;2.88;;;17.80;86.10;;;;;;6099429;23;20002;-82
2023/11/01 17:11:53;;;;;;;9.73;3.42;;;17.80;86.10;;;;;;6105648;23;19999;-88
2023/11/01 17:14:18;;;;;;;7.78;3.40;;;17.80;86.30;;;;;;6076147;23;20389;-89
2023/11/01 17:16:44;;;;;;;9.48;3.10;;;17.80;86.50;;;;;;6073811;23;20002;-88
2023/11/01 17:19:10;;;;;;;7.20;3.22;;;17.80;86.40;;;;;;6074332;23;20081;-86
2023/11/01 17:21:36;;;;;;;7.40;3.42;;;17.80;86.60;;;;;;6103103;23;20324;-88
2023/11/01 17:24:07;;;;;;;7.03;3.22;;;17.80;86.60;;;;;;6097688;23;20410;-84
2023/11/01 17:26:33;;;;;;;6.95;3.25;;;17.80;86.80;;;;;;6100350;23;20026;-90
2023/11/01 17:28:59;;;;;;;8.35;3.60;;;17.80;86.80;;;;;;6100461;23;20010;-89
2023/11/01 17:31:43;;;;;;;7.18;2.92;;;17.70;87.00;;;;;;6072683;23;20138;-88
2023/11/01 17:34:22;;;;;;;7.63;3.00;;;17.70;87.00;;;;;;6099449;23;20106;-84
2023/11/01 17:36:48;;;;;;;8.13;2.90;;;17.70;87.40;;;;;;6098606;23;20336;-89
2023/11/01 17:39:13;;;;;;;8.73;3.13;;;17.70;87.30;;;;;;6099398;23;20065;-89
2023/11/01 17:41:48;;;;;;;8.07;3.95;;;17.70;87.40;;;;;;6101436;23;20026;-90
2023/11/01 17:44:16;;;;;;;12.30;6.03;;;17.70;87.50;;;;;;6102747;23;20003;-87
2023/11/01 17:46:41;;;;;;;10.02;4.10;;;17.70;87.50;;;;;;6101240;23;19998;-86
2023/11/01 17:49:08;;;;;;;7.88;4.00;;;17.70;87.60;;;;;;6098323;23;20006;-73
2023/11/01 17:51:36;;;;;;;8.13;3.70;;;17.70;87.60;;;;;;6096223;23;20006;-75
2023/11/01 17:54:02;;;;;;;10.93;4.05;;;17.70;87.60;;;;;;6096373;23;20077;-79
2023/11/01 17:56:29;;;;;;;11.27;5.03;;;17.70;87.70;;;;;;6096737;23;20433;-76
2023/11/01 17:58:56;;;;;;;11.82;4.50;;;17.80;87.80;;;;;;6096968;23;20078;-77
2023/11/01 18:01:30;;;;;;;10.50;4.78;;;17.80;87.70;;;;;;6070984;23;20058;-75
2023/11/01 18:03:56;;;;;;;10.32;4.18;;;17.80;87.70;;;;;;6096796;23;20007;-77
2023/11/01 18:06:23;;;;;;;8.95;4.82;;;17.80;87.70;;;;;;6096497;23;20003;-76
2023/11/01 18:08:49;;;;;;;8.45;3.58;;;17.80;87.40;;;;;;6096286;23;20006;-74
2023/11/01 18:11:18;;;;;;;7.20;3.55;;;17.70;87.30;;;;;;6096505;23;20420;-74
2023/11/01 18:13:44;;;;;;;12.32;3.65;;;17.70;87.00;;;;;;6096051;23;20442;-72
2023/11/01 18:16:12;;;;;;;9.50;4.05;;;17.60;86.70;;;;;;6091852;23;20049;-74
2023/11/01 18:18:50;;;;;;;13.00;3.70;;;17.60;86.60;;;;;;6096083;23;20011;-72
2023/11/01 18:21:27;;;;;;;8.90;4.07;;;17.60;86.70;;;;;;6093373;23;20010;-72
2023/11/01 18:23:59;;;;;;;9.05;3.60;;;17.60;86.10;;;;;;6096097;23;20094;-73
2023/11/01 18:26:26;;;;;;;10.55;4.03;;;17.50;85.90;;;;;;6093152;23;20050;-75
2023/11/01 18:28:55;;;;;;;9.05;3.63;;;17.40;85.60;;;;;;6095790;23;20029;-72
2023/11/01 18:31:23;;;;;;;9.15;3.60;;;17.40;85.30;;;;;;6095760;23;20017;-76
2023/11/01 18:33:54;;;;;;;10.30;3.92;;;17.40;85.00;;;;;;6095283;23;20019;-74
2023/11/01 18:36:20;;;;;;;9.75;3.90;;;17.40;84.90;;;;;;6096076;23;20005;-73
2023/11/01 18:38:46;;;;;;;8.32;4.03;;;17.40;84.70;;;;;;6095314;23;20007;-74
2023/11/01 18:41:12;;;;;;;7.57;3.65;;;17.40;84.40;;;;;;6095925;23;20045;-74
2023/11/01 18:43:37;;;;;;;10.45;4.35;;;17.40;84.20;;;;;;6096099;23;20003;-73
2023/11/01 18:46:06;;;;;;;8.93;3.92;;;17.40;84.10;;;;;;6095946;23;20002;-75
2023/11/01 18:48:32;;;;;;;7.68;3.67;;;17.40;83.90;;;;;;6095339;23;20049;-77
2023/11/01 18:50:58;;;;;;;10.38;3.90;;;17.40;83.50;;;;;;6096328;23;19999;-74
2023/11/01 18:53:31;;;;;;;9.57;3.63;;;17.40;83.40;;;;;;6095544;23;20018;-77
2023/11/01 18:55:57;;;;;;;7.57;3.45;;;17.40;83.20;;;;;;6096301;23;19999;-75
2023/11/01 18:58:23;;;;;;;8.68;4.03;;;17.40;82.40;;;;;;6094823;23;20094;-76
2023/11/01 19:00:53;;;;;;;9.73;3.75;;;17.40;82.10;;;;;;6097872;23;20002;-75
2023/11/01 19:03:20;;;;;;;8.25;4.13;;;17.40;83.90;;;;;;6096820;23;20003;-72
2023/11/01 19:05:47;;;;;;;9.50;4.20;;;17.40;82.50;;;;;;6101994;23;20003;-72
2023/11/01 19:08:14;;;;;;;8.55;4.40;;;17.50;82.00;;;;;;6095585;23;20021;-72
2023/11/01 19:10:41;;;;;;;8.68;4.80;;;17.50;81.90;;;;;;6095661;23;20005;-70
2023/11/01 19:13:07;;;;;;;8.82;4.40;;;17.50;82.00;;;;;;6095378;23;20065;-72
2023/11/01 19:15:39;;;;;;;9.15;4.05;;;17.50;81.80;;;;;;6096083;23;20003;-71
2023/11/01 19:18:14;;;;;;;11.23;4.28;;;17.50;82.50;;;;;;6095174;23;20006;-70
2023/11/01 19:20:42;;;;;;;11.27;4.40;;;17.50;82.30;;;;;;6095235;23;20053;-71
2023/11/01 19:23:08;;;;;;;8.32;4.22;;;17.50;84.50;;;;;;6095222;23;20384;-71
2023/11/01 19:25:34;;;;;;;12.20;4.95;;;17.50;82.30;;;;;;6095458;23;20010;-71
2023/11/01 19:28:00;;;;;;;11.77;5.38;;;17.40;81.80;;;;;;6069460;23;20013;-71
2023/11/01 19:30:26;;;;;;;10.77;4.88;;;17.40;82.40;;;;;;6095703;23;20013;-72
2023/11/01 19:32:52;;;;;;;9.55;4.50;;;17.40;82.00;;;;;;6068608;23;20092;-71
2023/11/01 19:35:17;;;;;;;8.27;4.15;;;17.40;82.00;;;;;;6094118;23;20002;-71
2023/11/01 19:37:44;;;;;;;10.73;4.85;;;17.40;82.90;;;;;;6094394;23;20009;-71
2023/11/01 19:40:10;;;;;;;14.07;4.97;;;17.40;82.80;;;;;;6095008;23;20002;-71
2023/11/01 19:42:36;;;;;;;10.55;4.32;;;17.40;82.70;;;;;;6069342;23;20038;-71
2023/11/01 19:45:03;;;;;;;13.40;5.00;;;17.40;82.10;;;;;;6070211;23;20057;-73
2023/11/01 19:47:30;;;;;;;10.40;4.65;;;17.40;82.60;;;;;;6095426;23;20440;-73
2023/11/01 19:49:57;;;;;;;9.55;4.65;;;17.30;82.40;;;;;;6095554;23;20054;-73
2023/11/01 19:52:24;;;;;;;10.48;4.70;;;17.30;82.40;;;;;;6095870;23;20010;-72
2023/11/01 19:54:50;;;;;;;10.75;5.03;;;17.20;82.50;;;;;;6095525;23;20010;-71
2023/11/01 19:57:16;;;;;;;8.80;4.60;;;17.20;82.50;;;;;;6095797;23;20009;-69
2023/11/01 19:59:42;;;;;;;9.45;5.32;;;17.20;82.70;;;;;;6095699;23;20003;-71
2023/11/01 20:02:08;;;;;;;10.07;4.97;;;17.20;82.90;;;;;;6098433;23;20002;-72
2023/11/01 20:04:38;;;;;;;10.68;5.20;;;17.20;83.00;;;;;;6098200;23;20062;-72
2023/11/01 20:07:05;;;;;;;9.25;5.00;;;17.20;83.00;;;;;;6097707;23;20002;-71
2023/11/01 20:09:31;;;;;;;12.50;5.38;;;17.20;83.20;;;;;;6097537;23;20073;-72
2023/11/01 20:11:57;;;;;;;11.00;5.18;;;17.20;83.30;;;;;;6097481;23;20026;-71
2023/11/01 20:14:22;;;;;;;10.27;5.28;;;17.20;83.40;;;;;;6097662;23;20010;-74
2023/11/01 20:16:51;;;;;;;12.55;5.65;;;17.20;83.50;;;;;;6097538;23;20451;-71
2023/11/01 20:19:17;;;;;;;12.35;5.47;;;17.20;83.50;;;;;;6095832;23;20073;-72
2023/11/01 20:21:44;;;;;;;10.90;6.13;;;17.20;83.90;;;;;;6071721;23;20077;-72
2023/11/01 20:24:10;;;;;;;13.07;6.57;;;17.10;83.90;;;;;;6097304;23;20585;-72
2023/11/01 20:26:36;;;;;;;17.75;7.03;;;17.10;84.00;;;;;;6097271;23;20003;-73
2023/11/01 20:29:03;;;;;;;10.77;6.90;;;17.10;84.40;;;;;;6097729;23;20064;-74
2023/11/01 20:31:30;;;;;;;14.25;6.85;;;17.10;84.40;;;;;;6098127;23;20026;-71
2023/11/01 20:33:55;;;;;;;11.50;7.15;;;17.10;84.50;;;;;;6097309;23;20014;-72
2023/11/01 20:36:21;;;;;;;12.77;7.25;;;17.10;84.70;;;;;;6097924;23;20055;-71
2023/11/01 20:38:47;;;;;;;14.02;7.00;;;17.00;84.70;;;;;;6112352;23;20022;-89
2023/11/01 20:41:13;;;;;;;10.85;5.88;;;17.10;85.00;;;;;;6123272;23;19998;-89
2023/11/01 20:43:39;;;;;;;9.68;5.57;;;17.10;84.90;;;;;;6121003;23;20006;-88
2023/11/01 20:46:05;;;;;;;11.45;6.13;;;17.10;85.00;;;;;;6116912;23;19999;-90
2023/11/01 20:48:32;;;;;;;12.15;6.57;;;17.10;85.10;;;;;;6106180;23;20013;-89
2023/11/01 20:50:58;;;;;;;10.52;6.05;;;17.10;85.20;;;;;;6103876;23;20006;-89
2023/11/01 20:53:24;;;;;;;13.88;6.32;;;17.10;85.40;;;;;;6101806;23;20123;-88
2023/11/01 20:55:49;;;;;;;13.45;6.50;;;17.10;85.40;;;;;;6102318;23;20001;-87
2023/11/01 20:58:15;;;;;;;9.77;5.68;;;17.10;85.70;;;;;;6101047;23;20030;-86
2023/11/01 21:00:43;;;;;;;14.20;6.68;;;17.10;85.80;;;;;;6105902;23;20030;-89
2023/11/01 21:03:08;;;;;;;12.27;6.43;;;17.10;85.70;;;;;;6105036;23;20455;-89
2023/11/01 21:05:34;;;;;;;14.15;5.85;;;17.10;85.70;;;;;;6105257;23;19999;-89
2023/11/01 21:08:01;;;;;;;15.90;6.38;;;17.10;85.80;;;;;;6101582;23;20078;-89
2023/11/01 21:10:28;;;;;;;12.90;6.50;;;17.10;86.20;;;;;;6074007;23;20003;-88
2023/11/01 21:12:54;;;;;;;15.43;6.30;;;17.00;86.00;;;;;;6101288;23;20016;-87
2023/11/01 21:15:21;;;;;;;14.15;6.25;;;16.90;86.10;;;;;;6085066;23;20006;-88
2023/11/01 21:17:46;;;;;;;13.70;6.15;;;16.90;86.10;;;;;;6079117;23;20066;-87
2023/11/01 21:20:12;;;;;;;11.27;6.40;;;16.80;86.30;;;;;;6098110;23;20014;-89
2023/11/01 22:26:57;;;;;;;15.95;6.30;;;16.00;88.10;;;;;;6068315;23;20029;-89
2023/11/01 22:29:44;;;;;;;16.27;6.85;;;16.00;87.90;;;;;;6100764;23;20068;-88
2023/11/01 22:32:28;;;;;;;11.70;6.68;;;16.00;88.70;;;;;;6104184;23;20018;-89
2023/11/01 22:34:54;;;;;;;15.75;7.03;;;16.00;88.20;;;;;;6102236;23;20010;-89
2023/11/01 22:37:24;;;;;;;14.82;7.13;;;16.00;88.10;;;;;;6098686;23;20038;-88
2023/11/01 22:39:52;;;;;;;13.13;6.65;;;15.90;88.70;;;;;;6098610;23;20489;-88
2023/11/01 22:42:22;;;;;;;11.57;6.90;;;15.90;88.20;;;;;;6099848;23;20034;-89
2023/11/01 22:44:48;;;;;;;12.68;6.30;;;15.90;88.20;;;;;;6098589;23;20007;-89
2023/11/01 22:47:14;;;;;;;13.68;6.70;;;15.90;88.40;;;;;;6099440;23;20074;-90
2023/11/01 22:49:41;;;;;;;14.98;7.05;;;15.90;88.40;;;;;;6099119;23;20002;-90
2023/11/01 22:52:07;;;;;;;10.98;6.25;;;15.90;88.50;;;;;;6100276;23;20022;-90
2023/11/01 22:54:33;;;;;;;13.35;7.40;;;15.90;88.30;;;;;;6094687;23;20026;-86
2023/11/01 22:56:59;;;;;;;17.08;7.22;;;16.00;88.70;;;;;;6111611;23;19998;-90
2023/11/01 22:59:24;;;;;;;12.05;6.75;;;15.90;88.50;;;;;;6106381;23;20009;-89
2023/11/01 23:01:50;;;;;;;14.65;5.80;;;15.90;88.40;;;;;;6108194;23;20046;-88
2023/11/01 23:04:18;;;;;;;13.57;6.03;;;15.90;88.40;;;;;;6103881;23;20014;-90
2023/11/01 23:06:47;;;;;;;15.80;6.32;;;15.90;88.10;;;;;;6109677;23;20030;-89
2023/11/01 23:09:13;;;;;;;12.77;6.05;;;15.80;88.50;;;;;;6110190;23;20006;-89
2023/11/01 23:11:39;;;;;;;12.93;6.43;;;15.90;88.30;;;;;;6101476;23;20006;-91
2023/11/01 23:14:05;;;;;;;11.70;6.55;;;15.80;88.20;;;;;;6100608;23;20042;-91
2023/11/01 23:16:39;;;;;;;10.70;6.30;;;15.80;88.20;;;;;;6101042;23;20026;-91
2023/11/01 23:19:09;;;;;;;14.38;7.28;;;15.80;88.60;;;;;;6101701;23;20006;-88
2023/11/01 23:21:36;;;;;;;14.77;7.22;;;15.80;88.30;;;;;;6129576;23;20002;-88
2023/11/01 23:24:07;;;;;;;13.48;6.78;;;15.80;88.50;;;;;;6128439;23;20425;-89
2023/11/01 23:26:54;;;;;;;14.60;6.82;;;15.80;89.30;;;;;;6127739;23;20014;-90
2023/11/01 23:29:31;;;;;;;13.23;6.95;;;15.80;88.70;;;;;;6128771;23;20010;-89
2023/11/01 23:32:03;;;;;;;13.13;6.53;;;15.80;88.90;;;;;;6129197;23;20503;-88
2023/11/01 23:34:44;;;;;;;14.68;6.38;;;15.90;88.30;;;;;;6128895;23;20382;-91
2023/11/01 23:37:35;;;;;;;11.18;7.13;;;15.80;88.50;;;;;;6128288;23;20002;-88
2023/11/01 23:40:10;;;;;;;13.43;7.00;;;15.90;88.80;;;;;;6127879;23;20010;-89
2023/11/01 23:42:37;;;;;;;12.85;6.20;;;15.80;88.70;;;;;;6133770;23;19998;-89
2023/11/01 23:45:34;;;;;;;15.13;6.65;;;15.80;88.40;;;;;;6131494;23;19998;-90
2023/11/01 23:48:04;;;;;;;15.95;7.20;;;15.80;88.80;;;;;;6137265;23;20441;-89
2023/11/01 23:50:35;;;;;;;15.70;7.32;;;15.80;88.60;;;;;;6137572;23;20013;-89
2023/11/01 23:53:06;;;;;;;12.90;7.10;;;15.80;88.10;;;;;;6132831;23;20077;-90
2023/11/01 23:55:32;;;;;;;14.18;7.13;;;15.80;88.20;;;;;;6128452;23;20092;-88
2023/11/01 23:58:02;;;;;;;14.00;6.55;;;15.80;88.80;;;;;;6129175;23;19998;-88
